Time;durP1;ratioP1;P1;durP2;ratioP2;P2;SDS_P1;SDS_P2;PMS_P1;PMS_P2;Temp;Humidity;BMP_temperature;BMP_pressure;BME280_temperature;BME280_humidity;BME280_pressure;Samples;Min_cycle;Max_cycle;Signal;HPM_P1;HPM_P2
2022/03/19 00:01:32;;;;;;;40.85;19.65;;;;;;;-3.24;54.75;99924.95;1654305;87;21065;-81
2022/03/19 00:03:58;;;;;;;42.88;19.45;;;;;;;-3.28;54.62;99927.30;1636899;88;20977;-81
2022/03/19 00:06:25;;;;;;;42.40;19.70;;;;;;;-3.38;57.94;99928.06;1654330;87;21088;-81
2022/03/19 00:08:56;;;;;;;43.63;20.85;;;;;;;-3.43;55.61;99915.23;1637281;87;21434;-80
2022/03/19 00:11:20;;;;;;;36.50;18.60;;;;;;;-3.48;55.81;99927.91;1658000;86;21061;-80
2022/03/19 00:13:47;;;;;;;37.67;19.40;;;;;;;-3.55;56.72;99931.36;1643754;87;21023;-80
2022/03/19 00:16:13;;;;;;;41.92;18.73;;;;;;;-3.56;55.95;99924.00;1653319;86;21029;-81
2022/03/19 00:18:40;;;;;;;38.30;18.05;;;;;;;-3.58;56.81;99926.89;1688659;85;20993;-81
2022/03/19 00:21:07;;;;;;;38.00;18.25;;;;;;;-3.66;55.69;99920.39;1653257;86;21088;-80
2022/03/19 00:23:34;;;;;;;37.60;17.23;;;;;;;-3.71;56.51;99927.88;1692830;85;20959;-81
2022/03/19 00:26:02;;;;;;;36.95;17.57;;;;;;;-3.73;56.07;99920.42;1693930;84;21101;-81
2022/03/19 00:28:28;;;;;;;36.08;18.05;;;;;;;-3.73;56.72;99919.13;1691160;85;21083;-81
2022/03/19 00:30:55;;;;;;;46.85;19.87;;;;;;;-3.74;56.17;99919.94;1688824;85;21028;-81
2022/03/19 00:33:22;;;;;;;36.68;17.65;;;;;;;-3.74;56.69;99918.22;1692292;84;21380;-81
2022/03/19 00:35:49;;;;;;;35.73;17.80;;;;;;;-3.74;56.57;99914.76;1694161;85;21012;-80
2022/03/19 00:38:17;;;;;;;38.83;18.07;;;;;;;-3.80;59.05;99921.75;1694317;84;21032;-81
2022/03/19 00:40:43;;;;;;;37.65;17.65;;;;;;;-3.81;57.98;99919.06;1694374;84;20981;-81
2022/03/19 00:43:10;;;;;;;37.25;17.67;;;;;;;-3.90;58.40;99920.72;1694045;85;21053;-82
2022/03/19 00:45:37;;;;;;;41.37;18.95;;;;;;;-3.96;60.36;99930.72;1693309;84;21045;-82
2022/03/19 00:48:04;;;;;;;38.00;19.32;;;;;;;-4.03;60.85;99912.20;1694063;85;21020;-81
2022/03/19 00:50:31;;;;;;;38.23;17.85;;;;;;;-4.11;61.00;99924.69;1694158;85;21006;-82
2022/03/19 00:52:57;;;;;;;36.75;18.10;;;;;;;-4.15;60.29;99927.02;1691893;85;21000;-82
2022/03/19 00:55:24;;;;;;;45.40;19.02;;;;;;;-4.18;59.28;99920.34;1653518;86;21020;-81
2022/03/19 00:57:50;;;;;;;37.15;17.45;;;;;;;-4.26;60.06;99915.61;1688896;85;21402;-81
2022/03/19 01:00:26;;;;;;;38.75;17.35;;;;;;;-4.21;59.05;99922.73;1688998;84;21473;-79
2022/03/19 01:02:55;;;;;;;40.95;17.60;;;;;;;-4.20;59.25;99913.77;1655519;86;20993;-80
2022/03/19 01:05:23;;;;;;;34.63;16.25;;;;;;;-4.27;59.20;99910.33;1643422;87;21115;-80
2022/03/19 01:07:55;;;;;;;33.18;17.35;;;;;;;-4.30;59.34;99915.31;1658506;86;21025;-79
2022/03/19 01:10:28;;;;;;;33.08;16.52;;;;;;;-4.27;59.27;99911.20;1659823;86;21004;-79
2022/03/19 01:12:57;;;;;;;35.20;17.30;;;;;;;-4.27;58.92;99917.67;1665072;86;21014;-79
2022/03/19 01:15:24;;;;;;;38.85;18.70;;;;;;;-4.26;60.55;99923.77;1665239;86;21008;-79
2022/03/19 01:17:51;;;;;;;40.50;17.02;;;;;;;-4.24;59.62;99910.50;1665067;86;21020;-80
2022/03/19 01:20:19;;;;;;;42.48;19.82;;;;;;;-4.24;59.85;99919.56;1665094;86;21075;-80
2022/03/19 01:22:47;;;;;;;38.80;18.65;;;;;;;-4.23;59.40;99905.84;1665189;86;21059;-81
2022/03/19 01:25:16;;;;;;;42.88;19.07;;;;;;;-4.26;59.52;99922.47;1665326;86;21064;-80
2022/03/19 01:27:44;;;;;;;42.62;19.65;;;;;;;-4.22;59.12;99917.06;1665209;86;21064;-80
2022/03/19 01:30:14;;;;;;;40.33;18.90;;;;;;;-4.23;59.25;99909.72;1665365;86;21012;-82
2022/03/19 01:32:41;;;;;;;40.92;18.37;;;;;;;-4.29;59.43;99911.91;1664518;86;21385;-82
2022/03/19 01:35:10;;;;;;;34.10;17.40;;;;;;;-4.34;59.82;99902.97;1637596;86;21434;-82
2022/03/19 01:37:38;;;;;;;33.67;17.50;;;;;;;-4.38;60.04;99905.78;1636535;87;21060;-82
2022/03/19 01:40:09;;;;;;;38.05;18.27;;;;;;;-4.38;59.67;99909.28;1637061;87;20977;-82
2022/03/19 01:42:42;;;;;;;38.00;18.82;;;;;;;-4.40;59.65;99911.28;1644988;86;21000;-82
2022/03/19 01:45:16;;;;;;;45.45;18.50;;;;;;;-4.42;60.35;99907.69;1665553;86;21044;-82
2022/03/19 01:47:43;;;;;;;42.00;18.60;;;;;;;-4.42;59.72;99903.80;1665542;85;21411;-82
2022/03/19 01:50:12;;;;;;;38.60;18.55;;;;;;;-4.52;59.94;99913.58;1665648;86;21032;-82
2022/03/19 01:52:39;;;;;;;37.50;18.32;;;;;;;-4.52;59.93;99904.95;1665484;86;21462;-80
2022/03/19 01:55:08;;;;;;;39.45;18.82;;;;;;;-4.47;59.96;99901.33;1665425;86;21502;-81
2022/03/19 01:57:40;;;;;;;39.92;17.92;;;;;;;-4.53;59.97;99903.16;1665630;86;21064;-80
2022/03/19 02:00:13;;;;;;;43.85;19.45;;;;;;;-4.48;60.11;99912.48;1665701;86;21442;-82
2022/03/19 02:02:40;;;;;;;36.40;18.42;;;;;;;-4.49;60.08;99909.00;1665420;86;21068;-80
2022/03/19 02:05:17;;;;;;;34.33;17.92;;;;;;;-4.50;60.26;99904.63;1665772;86;21067;-80
2022/03/19 02:07:45;;;;;;;42.70;17.67;;;;;;;-4.60;60.39;99915.21;1665543;86;21004;-73
2022/03/19 02:10:15;;;;;;;37.28;17.42;;;;;;;-4.70;60.51;99915.05;1664764;86;21081;-73
2022/03/19 02:12:44;;;;;;;33.33;16.07;;;;;;;-4.72;60.51;99914.05;1664195;86;21002;-73
2022/03/19 02:15:13;;;;;;;36.93;17.15;;;;;;;-4.74;61.10;99918.23;1664354;86;21037;-72
2022/03/19 02:17:40;;;;;;;43.42;17.57;;;;;;;-4.82;62.31;99916.47;1664129;86;21415;-73
2022/03/19 02:20:08;;;;;;;37.28;17.10;;;;;;;-4.84;61.59;99916.75;1664587;86;21044;-73
2022/03/19 02:22:35;;;;;;;41.60;17.92;;;;;;;-4.84;61.10;99914.16;1665513;86;21012;-73
2022/03/19 02:27:49;;;;;;;39.03;17.10;;;;;;;-4.90;60.93;99915.56;1665220;86;21435;-72
2022/03/19 02:30:16;;;;;;;40.03;18.02;;;;;;;-4.87;61.45;99923.04;1664065;86;21017;-72
2022/03/19 02:32:49;;;;;;;34.45;17.37;;;;;;;-4.90;61.09;99913.40;1664551;86;21004;-72
2022/03/19 02:35:13;;;;;;;31.60;16.32;;;;;;;-4.98;61.29;99921.93;1665029;85;21027;-72
2022/03/19 02:37:43;;;;;;;32.33;17.57;;;;;;;-5.01;61.54;99916.58;1671312;84;21065;-75
2022/03/19 02:40:16;;;;;;;37.63;17.98;;;;;;;-5.01;62.29;99914.38;1699533;84;21029;-72
2022/03/19 02:42:50;;;;;;;34.40;16.50;;;;;;;-5.01;62.12;99920.84;1699530;84;20970;-72
2022/03/19 02:45:15;;;;;;;37.28;17.00;;;;;;;-4.99;62.33;99924.45;1699419;84;20970;-74
2022/03/19 02:47:57;;;;;;;33.15;15.75;;;;;;;-4.98;62.20;99916.76;1699523;84;21064;-72
2022/03/19 02:50:33;;;;;;;35.78;16.75;;;;;;;-5.01;62.39;99917.87;1698990;84;21434;-74
2022/03/19 02:53:06;;;;;;;34.73;16.48;;;;;;;-5.01;62.09;99920.46;1699029;84;21461;-74
2022/03/19 02:55:37;;;;;;;32.80;17.48;;;;;;;-5.04;61.90;99909.53;1665464;86;20997;-74
2022/03/19 02:58:05;;;;;;;37.50;17.15;;;;;;;-5.06;62.21;99911.52;1699037;84;20970;-81
2022/03/19 03:00:33;;;;;;;33.78;16.95;;;;;;;-5.10;63.08;99903.06;1699504;84;21089;-81
2022/03/19 03:03:01;;;;;;;36.13;16.67;;;;;;;-5.12;63.29;99909.42;1699575;84;21013;-79
2022/03/19 03:05:27;;;;;;;40.03;17.65;;;;;;;-5.14;63.40;99904.56;1699530;84;21077;-80
2022/03/19 03:07:54;;;;;;;35.50;18.10;;;;;;;-5.18;63.32;99908.63;1699519;84;20996;-80
2022/03/19 03:10:21;;;;;;;35.23;15.98;;;;;;;-5.18;63.15;99910.33;1664566;86;21080;-79
2022/03/19 03:12:47;;;;;;;41.45;15.85;;;;;;;-5.15;62.92;99906.62;1719013;83;21000;-79
2022/03/19 03:15:14;;;;;;;34.38;15.93;;;;;;;-5.15;62.85;99901.45;1682259;85;21056;-79
2022/03/19 03:17:41;;;;;;;34.53;17.12;;;;;;;-5.17;62.82;99910.82;1702615;83;21000;-73
2022/03/19 03:20:09;;;;;;;33.13;16.77;;;;;;;-5.14;62.98;99908.44;1699199;84;21016;-73
2022/03/19 03:22:37;;;;;;;33.88;16.95;;;;;;;-5.20;63.10;99910.61;1699094;84;21389;-74
2022/03/19 03:25:06;;;;;;;36.13;16.17;;;;;;;-5.16;63.04;99911.31;1678933;84;21108;-73
2022/03/19 03:27:33;;;;;;;35.17;16.90;;;;;;;-5.16;62.94;99910.02;1665131;86;21428;-73
2022/03/19 03:29:59;;;;;;;41.10;17.02;;;;;;;-5.24;62.98;99908.23;1665477;86;21032;-73
2022/03/19 03:32:26;;;;;;;36.42;17.12;;;;;;;-5.26;63.14;99912.42;1665102;85;21407;-73
2022/03/19 03:34:52;;;;;;;36.55;15.75;;;;;;;-5.26;63.25;99915.01;1668615;86;21010;-73
2022/03/19 03:37:19;;;;;;;34.65;15.32;;;;;;;-5.26;63.35;99911.52;1647592;86;21013;-73
2022/03/19 03:39:45;;;;;;;35.43;17.80;;;;;;;-5.25;63.41;99912.91;1665475;86;21029;-73
2022/03/19 03:42:12;;;;;;;36.33;15.65;;;;;;;-5.30;63.80;99913.92;1699051;84;21009;-73
2022/03/19 03:44:41;;;;;;;38.60;17.35;;;;;;;-5.36;63.04;99911.33;1698999;84;21450;-73
2022/03/19 03:47:08;;;;;;;35.35;15.95;;;;;;;-5.34;63.45;99911.02;1665286;86;21032;-74
2022/03/19 03:49:34;;;;;;;36.23;15.13;;;;;;;-5.40;64.19;99912.80;1665697;86;21068;-74
2022/03/19 03:52:00;;;;;;;34.63;16.12;;;;;;;-5.46;67.38;99917.19;1665622;86;21029;-73
2022/03/19 03:54:28;;;;;;;37.85;16.82;;;;;;;-5.45;64.58;99912.89;1657903;87;21045;-73
2022/03/19 03:56:55;;;;;;;32.73;15.78;;;;;;;-5.45;64.24;99918.97;1664949;86;21021;-73
2022/03/19 03:59:23;;;;;;;35.25;15.93;;;;;;;-5.43;64.83;99920.37;1657701;87;21001;-73
2022/03/19 04:01:50;;;;;;;36.58;17.25;;;;;;;-5.44;64.18;99922.05;1657548;87;21053;-73
2022/03/19 04:04:16;;;;;;;35.55;15.90;;;;;;;-5.44;64.16;99923.34;1657834;87;21017;-73
2022/03/19 04:06:43;;;;;;;37.05;16.20;;;;;;;-5.41;64.07;99925.64;1665382;86;21013;-74
2022/03/19 04:09:09;;;;;;;33.67;15.28;;;;;;;-5.37;64.21;99926.31;1665679;86;21008;-73
2022/03/19 04:11:36;;;;;;;39.48;17.25;;;;;;;-5.36;64.13;99922.55;1665544;86;21075;-73
2022/03/19 04:14:03;;;;;;;33.18;15.80;;;;;;;-5.41;64.06;99925.23;1657784;87;21410;-74
2022/03/19 04:16:31;;;;;;;41.98;17.10;;;;;;;-5.48;64.90;99939.42;1664354;86;21069;-73
2022/03/19 04:18:57;;;;;;;34.38;16.02;;;;;;;-5.46;64.34;99927.91;1638537;88;21056;-73
2022/03/19 04:21:24;;;;;;;35.75;16.50;;;;;;;-5.49;64.21;99924.73;1698894;84;21016;-73
2022/03/19 04:23:51;;;;;;;38.15;16.42;;;;;;;-5.53;64.80;99929.19;1665479;86;21390;-72
2022/03/19 04:26:17;;;;;;;37.83;16.80;;;;;;;-5.52;66.29;99932.27;1665645;86;21076;-73
2022/03/19 04:28:44;;;;;;;36.65;17.95;;;;;;;-5.51;65.18;99932.78;1665693;86;20973;-72
2022/03/19 04:31:11;;;;;;;44.53;17.98;;;;;;;-5.54;66.18;99932.95;1664665;86;21101;-72
2022/03/19 04:33:37;;;;;;;36.85;16.55;;;;;;;-5.56;65.09;99926.42;1659071;86;20981;-72
2022/03/19 04:38:50;;;;;;;33.67;16.60;;;;;;;-5.52;65.45;99939.14;1665457;86;21037;-72
2022/03/19 04:41:16;;;;;;;39.58;18.67;;;;;;;-5.50;65.70;99937.53;1650596;86;21402;-72
2022/03/19 04:43:43;;;;;;;39.05;17.20;;;;;;;-5.51;65.08;99938.34;1665247;86;21052;-72
2022/03/19 04:46:10;;;;;;;37.05;16.35;;;;;;;-5.52;64.99;99936.55;1699151;84;21051;-72
2022/03/19 04:48:36;;;;;;;37.83;18.05;;;;;;;-5.52;65.11;99940.02;1665334;86;21001;-73
2022/03/19 04:51:03;;;;;;;40.12;17.42;;;;;;;-5.48;65.03;99930.38;1698947;84;21010;-73
2022/03/19 04:53:30;;;;;;;41.60;17.73;;;;;;;-5.45;65.38;99945.20;1699600;84;21025;-72
2022/03/19 04:55:57;;;;;;;40.00;16.97;;;;;;;-5.48;66.01;99934.27;1699331;84;20986;-72
2022/03/19 04:58:23;;;;;;;39.88;17.42;;;;;;;-5.52;66.09;99950.77;1699542;84;21391;-73
2022/03/19 05:00:49;;;;;;;31.82;15.60;;;;;;;-5.52;65.86;99943.89;1699297;84;21016;-72
2022/03/19 05:03:16;;;;;;;36.20;16.25;;;;;;;-5.49;66.01;99948.39;1679073;84;21051;-73
2022/03/19 05:05:43;;;;;;;38.75;16.12;;;;;;;-5.49;65.72;99945.81;1699093;84;21012;-72
2022/03/19 05:08:10;;;;;;;40.75;17.70;;;;;;;-5.45;65.16;99938.73;1665440;86;21068;-72
2022/03/19 05:13:22;;;;;;;33.23;15.95;;;;;;;-5.39;66.00;99953.77;1699524;84;21025;-72
2022/03/19 05:15:48;;;;;;;40.70;16.45;;;;;;;-5.37;65.63;99953.45;1699452;84;21021;-72
2022/03/19 05:18:15;;;;;;;36.40;15.78;;;;;;;-5.38;65.25;99948.70;1699389;84;20997;-73
2022/03/19 05:20:41;;;;;;;32.00;15.63;;;;;;;-5.35;65.41;99950.17;1699312;84;21016;-73
2022/03/19 05:23:09;;;;;;;36.17;16.65;;;;;;;-5.33;65.10;99952.86;1665202;86;21510;-73
2022/03/19 05:25:36;;;;;;;31.93;16.52;;;;;;;-5.32;65.45;99958.55;1698745;84;21040;-73
2022/03/19 05:28:03;;;;;;;36.08;16.55;;;;;;;-5.26;64.87;99959.33;1665387;86;21435;-75
2022/03/19 05:30:31;;;;;;;39.65;16.60;;;;;;;-5.22;66.36;99963.53;1698897;84;21020;-74
2022/03/19 05:32:58;;;;;;;35.20;16.93;;;;;;;-5.18;65.47;99962.03;1699375;84;20998;-74
2022/03/19 05:35:26;;;;;;;40.73;17.40;;;;;;;-5.13;64.95;99958.05;1699573;83;20996;-74
2022/03/19 05:37:53;;;;;;;35.90;16.20;;;;;;;-5.09;64.77;99960.44;1699506;84;20986;-75
2022/03/19 05:40:19;;;;;;;40.65;17.32;;;;;;;-5.05;65.90;99962.43;1699387;84;21002;-74
2022/03/19 05:42:46;;;;;;;32.83;16.32;;;;;;;-4.96;65.06;99964.32;1687173;83;21022;-74
2022/03/19 05:45:15;;;;;;;39.50;17.42;;;;;;;-4.91;65.01;99964.60;1705940;83;21036;-75
2022/03/19 05:47:41;;;;;;;41.05;18.32;;;;;;;-4.85;65.34;99962.81;1721771;83;21000;-74
2022/03/19 05:50:09;;;;;;;40.50;17.15;;;;;;;-4.76;64.88;99962.11;1716501;83;21033;-75
2022/03/19 05:52:35;;;;;;;34.98;17.45;;;;;;;-4.66;64.84;99964.88;1698953;84;21027;-73
2022/03/19 05:55:03;;;;;;;38.38;18.45;;;;;;;-4.59;64.79;99968.36;1699043;84;20996;-74
2022/03/19 05:57:30;;;;;;;46.88;20.75;;;;;;;-4.54;64.65;99965.66;1673550;84;20973;-74
2022/03/19 05:59:56;;;;;;;42.20;19.75;;;;;;;-4.46;65.00;99956.17;1686660;85;21075;-74
2022/03/19 06:02:24;;;;;;;49.50;21.23;;;;;;;-4.37;64.76;99962.83;1639194;87;21117;-74
2022/03/19 06:04:52;;;;;;;51.13;20.25;;;;;;;-4.28;64.66;99966.38;1664303;86;21033;-74
2022/03/19 06:07:19;;;;;;;51.63;21.07;;;;;;;-4.18;64.79;99966.95;1664380;86;21021;-74
2022/03/19 06:09:49;;;;;;;50.88;19.82;;;;;;;-4.04;64.15;99965.20;1657979;87;21021;-74
2022/03/19 06:12:15;;;;;;;46.25;19.80;;;;;;;-3.94;63.86;99961.48;1657963;86;21013;-74
2022/03/19 06:14:42;;;;;;;45.23;19.65;;;;;;;-3.87;63.55;99948.98;1665455;86;21040;-74
2022/03/19 06:17:08;;;;;;;48.40;19.85;;;;;;;-3.74;63.42;99963.98;1658168;86;21430;-75
2022/03/19 06:19:35;;;;;;;42.58;17.77;;;;;;;-3.66;63.14;99960.55;1665888;86;21080;-75
2022/03/19 06:22:01;;;;;;;50.33;19.65;;;;;;;-3.54;62.75;99956.50;1665476;86;20993;-74
2022/03/19 06:24:28;;;;;;;44.63;17.62;;;;;;;-3.45;62.29;99959.60;1665250;86;21160;-74
2022/03/19 06:26:55;;;;;;;41.63;18.23;;;;;;;-3.36;62.12;99960.56;1699089;84;21036;-74
2022/03/19 06:29:22;;;;;;;39.50;17.95;;;;;;;-3.23;61.80;99954.38;1698877;84;21025;-74
2022/03/19 06:31:49;;;;;;;45.30;17.77;;;;;;;-3.14;61.54;99951.02;1699569;84;21403;-75
2022/03/19 06:34:16;;;;;;;47.50;18.45;;;;;;;-3.05;61.32;99954.14;1699262;83;21446;-75
2022/03/19 06:39:27;;;;;;;39.88;17.30;;;;;;;-2.84;60.37;99960.44;1699599;84;21399;-74
2022/03/19 06:41:53;;;;;;;40.70;16.87;;;;;;;-2.73;60.47;99955.47;1699571;84;20954;-75
2022/03/19 06:44:20;;;;;;;35.92;16.57;;;;;;;-2.62;60.21;99949.97;1699671;84;20989;-74
2022/03/19 06:46:46;;;;;;;35.50;16.40;;;;;;;-2.50;60.21;99946.73;1699535;84;21407;-73
2022/03/19 06:49:12;;;;;;;43.50;17.55;;;;;;;-2.40;59.80;99949.44;1699290;84;20959;-73
2022/03/19 06:51:40;;;;;;;33.00;16.85;;;;;;;-2.29;58.71;99952.20;1699084;84;21088;-74
2022/03/19 06:54:06;;;;;;;33.60;15.83;;;;;;;-2.21;59.31;99956.93;1665454;86;21432;-75
2022/03/19 06:56:33;;;;;;;44.13;16.95;;;;;;;-2.09;58.58;99956.27;1698920;84;20977;-74
2022/03/19 06:58:59;;;;;;;32.65;15.35;;;;;;;-2.00;58.63;99954.16;1665531;86;21040;-74
2022/03/19 07:01:26;;;;;;;37.17;15.10;;;;;;;-1.88;58.02;99950.41;1699445;84;21021;-74
2022/03/19 07:03:53;;;;;;;39.27;15.85;;;;;;;-1.74;58.02;99950.72;1699517;84;20990;-74
2022/03/19 07:06:21;;;;;;;37.15;16.48;;;;;;;-1.63;57.82;99945.17;1699634;84;20989;-75
2022/03/19 07:08:50;;;;;;;40.38;16.10;;;;;;;-1.50;57.35;99944.98;1702776;83;20977;-75
2022/03/19 07:11:16;;;;;;;38.92;16.85;;;;;;;-1.35;57.14;99936.17;1700606;84;21005;-75
2022/03/19 07:13:43;;;;;;;34.38;14.53;;;;;;;-1.24;56.55;99936.28;1699246;84;21435;-75
2022/03/19 07:16:09;;;;;;;36.15;15.78;;;;;;;-1.10;56.40;99939.59;1699528;84;20977;-74
2022/03/19 07:18:36;;;;;;;29.48;14.13;;;;;;;-0.97;55.63;99930.66;1699585;84;21034;-74
2022/03/19 07:21:03;;;;;;;32.60;14.80;;;;;;;-0.86;55.66;99932.48;1699222;84;20996;-74
2022/03/19 07:23:29;;;;;;;30.75;14.90;;;;;;;-0.73;55.59;99930.45;1702806;83;21453;-74
2022/03/19 07:25:59;;;;;;;28.12;13.88;;;;;;;-0.61;54.57;99931.44;1712464;84;21072;-75
2022/03/19 07:28:27;;;;;;;27.65;13.45;;;;;;;-0.48;55.12;99933.80;1712161;84;21439;-75
2022/03/19 07:30:57;;;;;;;33.83;14.23;;;;;;;-0.35;54.71;99932.65;1702857;84;20946;-74
2022/03/19 07:33:24;;;;;;;30.88;14.13;;;;;;;-0.22;53.56;99926.67;1701018;83;21043;-72
2022/03/19 07:35:51;;;;;;;25.05;12.05;;;;;;;-0.09;52.93;99943.79;1671443;86;21017;-74
2022/03/19 07:38:17;;;;;;;23.55;12.78;;;;;;;0.04;52.44;99933.06;1680321;84;20962;-72
2022/03/19 07:43:31;;;;;;;35.73;14.65;;;;;;;0.29;51.10;99931.95;1703727;83;21008;-72
2022/03/19 07:45:57;;;;;;;22.17;11.48;;;;;;;0.42;51.20;99926.84;1724094;83;20993;-72
2022/03/19 07:48:24;;;;;;;18.20;10.05;;;;;;;0.54;49.86;99922.13;1715008;83;21017;-74
2022/03/19 07:50:50;;;;;;;16.62;9.85;;;;;;;0.69;48.83;99917.98;1665467;86;21005;-72
2022/03/19 07:53:17;;;;;;;14.75;7.58;;;;;;;0.81;46.00;99918.00;1700127;83;21442;-72
2022/03/19 07:55:43;;;;;;;13.78;7.10;;;;;;;0.98;44.23;99923.50;1723650;83;21042;-72
2022/03/19 07:58:10;;;;;;;13.85;5.40;;;;;;;1.08;43.03;99923.45;1717769;83;20984;-75
2022/03/19 08:00:37;;;;;;;13.30;6.30;;;;;;;1.21;40.12;99920.94;1698808;84;21434;-74
2022/03/19 08:03:03;;;;;;;14.60;6.15;;;;;;;1.31;42.21;99919.16;1699078;84;20992;-71
2022/03/19 08:05:30;;;;;;;12.58;5.92;;;;;;;1.39;38.13;99916.84;1699152;84;21079;-74
2022/03/19 08:07:56;;;;;;;11.35;5.85;;;;;;;1.47;40.28;99921.05;1699333;84;20970;-74
2022/03/19 08:10:24;;;;;;;10.08;5.58;;;;;;;1.53;42.37;99922.58;1699504;84;21404;-74
2022/03/19 08:12:57;;;;;;;11.93;6.08;;;;;;;1.58;42.11;99915.80;1699385;84;20974;-74
2022/03/19 08:15:23;;;;;;;13.18;6.12;;;;;;;1.69;40.97;99924.46;1699597;83;21002;-74
2022/03/19 08:17:49;;;;;;;11.85;6.05;;;;;;;1.79;40.80;99919.17;1699422;84;20982;-74
2022/03/19 08:20:16;;;;;;;12.03;5.97;;;;;;;1.85;40.90;99911.55;1699295;84;20986;-74
2022/03/19 08:22:42;;;;;;;13.25;5.70;;;;;;;1.97;39.12;99922.47;1699604;84;21006;-74
2022/03/19 08:25:09;;;;;;;10.38;6.42;;;;;;;2.06;39.77;99914.47;1704640;83;21009;-75
2022/03/19 08:27:35;;;;;;;14.65;6.22;;;;;;;2.09;39.51;99911.56;1708070;83;21025;-75
2022/03/19 08:30:03;;;;;;;11.48;6.40;;;;;;;2.13;38.31;99905.11;1699063;84;21398;-75
2022/03/19 08:32:31;;;;;;;10.70;6.00;;;;;;;2.18;38.81;99910.09;1702525;83;20981;-74
2022/03/19 08:34:58;;;;;;;12.13;6.33;;;;;;;2.23;38.87;99905.91;1703532;83;20984;-74
2022/03/19 08:37:26;;;;;;;11.33;5.83;;;;;;;2.29;39.19;99906.15;1699441;84;20974;-75
2022/03/19 08:40:19;;;;;;;10.10;5.58;;;;;;;2.37;39.29;99902.48;1699401;84;21013;-74
2022/03/19 08:42:51;;;;;;;10.50;5.70;;;;;;;2.44;38.16;99897.02;1699523;84;20977;-75
2022/03/19 08:45:22;;;;;;;10.72;5.87;;;;;;;2.48;38.31;99893.27;1699313;84;21068;-74
2022/03/19 08:47:58;;;;;;;8.68;5.30;;;;;;;2.61;37.54;99893.25;1803100;79;22767;-73
2022/03/19 08:50:27;;;;;;;12.13;5.80;;;;;;;2.62;39.23;99900.26;1763571;80;21017;-73
2022/03/19 08:52:54;;;;;;;10.10;6.28;;;;;;;2.64;36.12;99887.23;1731670;83;21061;-73
2022/03/19 08:55:20;;;;;;;11.90;5.58;;;;;;;2.66;36.68;99899.06;1722973;82;21035;-72
2022/03/19 08:57:47;;;;;;;12.73;6.25;;;;;;;2.78;36.04;99896.83;1729982;83;21000;-73
2022/03/19 09:00:14;;;;;;;11.30;6.05;;;;;;;2.84;34.73;99888.30;1711659;83;21025;-74
2022/03/19 09:02:41;;;;;;;12.37;6.08;;;;;;;2.90;36.59;99886.77;1726451;82;20973;-76
2022/03/19 09:05:08;;;;;;;14.10;5.95;;;;;;;2.92;37.15;99890.76;1746302;82;20992;-75
2022/03/19 09:07:35;;;;;;;10.00;5.40;;;;;;;2.97;36.38;99884.34;1737717;82;21001;-76
2022/03/19 09:10:03;;;;;;;9.73;5.80;;;;;;;3.04;36.52;99892.44;1747146;82;20964;-74
2022/03/19 09:12:29;;;;;;;18.92;12.75;;;;;;;3.05;36.15;99890.72;1751667;82;21040;-74
2022/03/19 09:14:56;;;;;;;9.78;5.90;;;;;;;3.02;35.16;99882.75;1747115;82;21487;-74
2022/03/19 09:17:23;;;;;;;9.50;5.33;;;;;;;3.06;33.47;99894.24;1729701;83;21008;-74
2022/03/19 09:19:49;;;;;;;10.40;6.10;;;;;;;3.12;35.22;99891.37;1699725;83;21031;-74
2022/03/19 09:22:16;;;;;;;10.05;5.47;;;;;;;3.19;35.09;99894.20;1729035;83;21328;-74
2022/03/19 09:24:42;;;;;;;11.68;5.75;;;;;;;3.19;34.87;99888.52;1728844;83;21572;-75
2022/03/19 09:27:09;;;;;;;9.18;5.17;;;;;;;3.27;34.47;99899.23;1700379;84;21003;-74
2022/03/19 09:29:36;;;;;;;10.68;6.35;;;;;;;3.29;33.86;99885.34;1700354;84;21434;-74
2022/03/19 09:32:02;;;;;;;14.25;6.35;;;;;;;3.41;33.76;99887.44;1700790;84;20996;-74
2022/03/19 09:34:30;;;;;;;12.35;5.58;;;;;;;3.54;33.82;99891.31;1700886;84;21050;-75
2022/03/19 09:36:57;;;;;;;9.50;5.65;;;;;;;3.62;34.24;99882.39;1726549;83;20981;-75
2022/03/19 09:39:23;;;;;;;9.70;5.47;;;;;;;3.73;32.91;99889.23;1729650;83;20996;-75
2022/03/19 09:41:50;;;;;;;11.73;6.08;;;;;;;3.85;34.23;99886.52;1729976;83;21034;-74
2022/03/19 09:44:17;;;;;;;8.70;5.10;;;;;;;3.95;34.42;99887.24;1701388;83;21474;-74
2022/03/19 09:46:46;;;;;;;9.28;5.20;;;;;;;4.04;33.62;99889.22;1702038;83;21506;-75
2022/03/19 09:49:13;;;;;;;9.18;5.67;;;;;;;4.13;32.79;99874.14;1720314;83;21124;-74
2022/03/19 09:51:44;;;;;;;9.05;5.10;;;;;;;4.12;32.68;99871.06;1720483;83;21044;-75
2022/03/19 09:54:10;;;;;;;8.63;5.30;;;;;;;4.18;33.65;99875.16;1733241;80;21434;-75
2022/03/19 09:56:37;;;;;;;6.97;4.33;;;;;;;4.18;31.85;99871.22;1714427;83;21040;-75
2022/03/19 09:59:04;;;;;;;8.95;5.15;;;;;;;4.23;31.70;99870.50;1749833;81;20965;-74
2022/03/19 10:01:33;;;;;;;9.15;5.40;;;;;;;4.31;33.03;99867.17;1713902;83;21045;-75
2022/03/19 10:04:07;;;;;;;10.35;6.75;;;;;;;4.36;30.73;99873.02;1759321;80;21024;-75
2022/03/19 10:09:21;;;;;;;7.65;4.62;;;;;;;4.42;31.66;99880.17;1786173;80;20949;-75
2022/03/19 10:11:51;;;;;;;8.13;5.15;;;;;;;4.47;29.91;99886.44;1785976;80;20996;-75
2022/03/19 10:14:24;;;;;;;10.75;4.95;;;;;;;4.47;31.78;99866.73;1772419;80;21029;-75
2022/03/19 10:16:52;;;;;;;8.68;5.62;;;;;;;4.51;30.81;99882.14;1713912;84;21020;-75
2022/03/19 10:19:19;;;;;;;8.60;5.42;;;;;;;4.61;31.41;99881.52;1749771;82;20994;-75
2022/03/19 10:21:46;;;;;;;12.13;5.28;;;;;;;4.66;30.31;99866.31;1714014;83;21020;-74
2022/03/19 10:24:26;;;;;;;11.30;7.20;;;;;;;4.75;31.30;99874.00;1761672;80;21004;-74
2022/03/19 10:26:53;;;;;;;8.85;4.85;;;;;;;4.91;30.00;99874.38;1785962;80;21004;-74
2022/03/19 10:29:30;;;;;;;7.35;4.72;;;;;;;5.02;31.00;99875.50;1785757;80;20976;-74
2022/03/19 10:32:03;;;;;;;7.42;4.30;;;;;;;5.14;30.40;99874.00;1786023;80;21024;-74
2022/03/19 10:34:30;;;;;;;11.12;5.85;;;;;;;5.19;31.08;99869.73;1771348;80;21028;-74
2022/03/19 10:36:57;;;;;;;9.23;5.80;;;;;;;5.27;30.46;99873.44;1713836;84;21059;-74
2022/03/19 10:39:27;;;;;;;9.78;5.62;;;;;;;5.35;30.48;99878.86;1749903;81;21001;-74
2022/03/19 10:41:58;;;;;;;11.05;5.22;;;;;;;5.40;29.44;99872.41;1713798;83;21005;-74
2022/03/19 10:44:28;;;;;;;9.98;6.12;;;;;;;5.40;30.12;99869.33;1761282;80;21000;-74
2022/03/19 10:46:58;;;;;;;13.53;6.72;;;;;;;5.61;30.18;99865.38;1787923;80;21007;-74
2022/03/19 10:49:28;;;;;;;14.55;7.05;;;;;;;6.28;28.50;99863.19;1791477;80;21397;-74
2022/03/19 10:51:59;;;;;;;10.18;6.20;;;;;;;7.37;27.61;99862.25;1791846;80;21000;-73
2022/03/19 10:54:26;;;;;;;10.50;6.17;;;;;;;8.66;29.28;99848.26;1791159;80;20988;-74
2022/03/19 10:56:53;;;;;;;9.68;6.05;;;;;;;9.99;25.30;99847.21;1791817;80;21024;-74
2022/03/19 10:59:20;;;;;;;8.08;5.83;;;;;;;11.12;27.69;99837.58;1791827;80;20996;-73
2022/03/19 11:01:49;;;;;;;10.00;5.37;;;;;;;12.15;25.96;99832.74;1771988;80;20977;-74
2022/03/19 11:04:16;;;;;;;9.73;5.75;;;;;;;13.01;24.11;99840.94;1757822;81;20974;-74
2022/03/19 11:06:45;;;;;;;9.53;6.00;;;;;;;13.89;24.13;99826.63;1757814;82;21001;-74
2022/03/19 11:09:15;;;;;;;8.45;5.67;;;;;;;14.77;24.38;99831.09;1757488;82;21399;-74
2022/03/19 11:11:57;;;;;;;10.20;5.70;;;;;;;15.43;21.04;99820.98;1774596;80;20940;-74
2022/03/19 11:14:29;;;;;;;9.45;6.65;;;;;;;15.98;20.89;99812.30;1791926;80;20957;-74
2022/03/19 11:17:33;;;;;;;11.38;6.80;;;;;;;16.23;20.42;99820.17;1791833;80;21362;-74
2022/03/19 11:20:05;;;;;;;10.05;6.83;;;;;;;16.50;19.60;99811.05;1780013;80;21413;-73
2022/03/19 11:22:52;;;;;;;8.95;6.53;;;;;;;16.04;18.29;99801.46;1789313;80;21015;-82
2022/03/19 11:25:52;;;;;;;12.33;8.58;;;;;;;16.04;19.42;99803.69;1791904;80;21019;-82
2022/03/19 11:28:19;;;;;;;12.05;7.62;;;;;;;16.26;17.70;99803.62;1792021;80;21020;-81
2022/03/19 11:31:10;;;;;;;10.40;6.90;;;;;;;16.68;18.82;99799.47;1788812;80;20941;-81
2022/03/19 11:33:37;;;;;;;8.30;5.95;;;;;;;16.97;18.12;99807.20;1757002;81;21399;-82
2022/03/19 11:36:10;;;;;;;7.92;6.22;;;;;;;17.51;17.10;99796.80;1721318;83;21047;-82
2022/03/19 11:38:52;;;;;;;9.93;6.50;;;;;;;17.50;17.78;99787.47;1757888;81;20973;-82
2022/03/19 11:41:25;;;;;;;8.90;6.55;;;;;;;17.90;16.77;99791.62;1756860;80;20976;-81
2022/03/19 11:44:00;;;;;;;8.20;6.53;;;;;;;17.60;16.12;99780.90;1792025;80;20967;-82
2022/03/19 11:46:26;;;;;;;9.93;6.80;;;;;;;18.42;18.22;99784.66;1762064;80;20968;-81